sensor_id;sensor_type;location;lat;lon;timestamp;P1;durP1;ratioP1;P2;durP2;ratioP2
8622;SDS011;4349;47.552;8.904;2022-12-18T00:01:57;42.23;;;26.67;;
8622;SDS011;4349;47.552;8.904;2022-12-18T00:04:26;43.03;;;27.30;;
8622;SDS011;4349;47.552;8.904;2022-12-18T00:06:54;37.73;;;23.77;;
8622;SDS011;4349;47.552;8.904;2022-12-18T00:09:22;42.00;;;27.03;;
8622;SDS011;4349;47.552;8.904;2022-12-18T00:11:56;38.93;;;25.93;;
8622;SDS011;4349;47.552;8.904;2022-12-18T00:14:24;40.20;;;25.87;;
8622;SDS011;4349;47.552;8.904;2022-12-18T00:16:51;42.33;;;25.83;;
8622;SDS011;4349;47.552;8.904;2022-12-18T00:19:18;41.17;;;26.33;;
8622;SDS011;4349;47.552;8.904;2022-12-18T00:21:46;43.37;;;26.63;;
8622;SDS011;4349;47.552;8.904;2022-12-18T00:24:13;40.83;;;25.10;;
8622;SDS011;4349;47.552;8.904;2022-12-18T00:26:43;42.27;;;25.60;;
8622;SDS011;4349;47.552;8.904;2022-12-18T00:29:11;43.77;;;26.33;;
8622;SDS011;4349;47.552;8.904;2022-12-18T00:31:42;45.57;;;26.50;;
8622;SDS011;4349;47.552;8.904;2022-12-18T00:34:10;45.03;;;26.77;;
8622;SDS011;4349;47.552;8.904;2022-12-18T00:36:39;44.70;;;26.07;;
8622;SDS011;4349;47.552;8.904;2022-12-18T00:39:06;42.90;;;26.17;;
8622;SDS011;4349;47.552;8.904;2022-12-18T00:41:34;45.50;;;26.93;;
8622;SDS011;4349;47.552;8.904;2022-12-18T00:44:21;45.60;;;26.00;;
8622;SDS011;4349;47.552;8.904;2022-12-18T00:46:49;44.33;;;26.73;;
8622;SDS011;4349;47.552;8.904;2022-12-18T00:49:18;44.80;;;27.00;;
8622;SDS011;4349;47.552;8.904;2022-12-18T00:51:46;48.93;;;28.03;;
8622;SDS011;4349;47.552;8.904;2022-12-18T00:54:14;44.87;;;26.00;;
8622;SDS011;4349;47.552;8.904;2022-12-18T00:56:41;45.97;;;26.30;;
8622;SDS011;4349;47.552;8.904;2022-12-18T00:59:16;47.70;;;26.40;;
8622;SDS011;4349;47.552;8.904;2022-12-18T01:01:45;44.77;;;26.03;;
8622;SDS011;4349;47.552;8.904;2022-12-18T01:04:13;47.03;;;26.13;;
8622;SDS011;4349;47.552;8.904;2022-12-18T01:06:44;48.60;;;26.90;;
8622;SDS011;4349;47.552;8.904;2022-12-18T01:09:11;46.47;;;27.20;;
8622;SDS011;4349;47.552;8.904;2022-12-18T01:11:39;47.40;;;27.77;;
8622;SDS011;4349;47.552;8.904;2022-12-18T01:14:06;46.33;;;26.60;;
8622;SDS011;4349;47.552;8.904;2022-12-18T01:16:36;48.47;;;26.63;;
8622;SDS011;4349;47.552;8.904;2022-12-18T01:19:05;48.47;;;27.60;;
8622;SDS011;4349;47.552;8.904;2022-12-18T01:21:33;43.67;;;25.47;;
8622;SDS011;4349;47.552;8.904;2022-12-18T01:24:03;45.77;;;26.47;;
8622;SDS011;4349;47.552;8.904;2022-12-18T01:26:31;51.10;;;26.83;;
8622;SDS011;4349;47.552;8.904;2022-12-18T01:28:58;49.13;;;26.40;;
8622;SDS011;4349;47.552;8.904;2022-12-18T01:31:27;49.73;;;25.93;;
8622;SDS011;4349;47.552;8.904;2022-12-18T01:33:54;55.17;;;28.37;;
8622;SDS011;4349;47.552;8.904;2022-12-18T01:36:24;44.87;;;25.63;;
8622;SDS011;4349;47.552;8.904;2022-12-18T01:38:52;48.17;;;26.00;;
8622;SDS011;4349;47.552;8.904;2022-12-18T01:41:21;51.63;;;27.60;;
8622;SDS011;4349;47.552;8.904;2022-12-18T01:43:50;52.20;;;27.50;;
8622;SDS011;4349;47.552;8.904;2022-12-18T01:46:18;50.30;;;27.07;;
8622;SDS011;4349;47.552;8.904;2022-12-18T01:48:46;54.30;;;28.03;;
8622;SDS011;4349;47.552;8.904;2022-12-18T01:51:15;54.50;;;27.33;;
8622;SDS011;4349;47.552;8.904;2022-12-18T01:53:44;52.97;;;26.50;;
8622;SDS011;4349;47.552;8.904;2022-12-18T01:56:12;52.73;;;26.73;;
8622;SDS011;4349;47.552;8.904;2022-12-18T01:58:43;49.67;;;27.07;;
8622;SDS011;4349;47.552;8.904;2022-12-18T02:01:13;54.27;;;28.00;;
8622;SDS011;4349;47.552;8.904;2022-12-18T02:03:41;52.63;;;27.23;;
8622;SDS011;4349;47.552;8.904;2022-12-18T02:06:11;46.43;;;26.40;;
8622;SDS011;4349;47.552;8.904;2022-12-18T02:08:41;51.30;;;27.97;;
8622;SDS011;4349;47.552;8.904;2022-12-18T02:11:13;50.70;;;27.83;;
8622;SDS011;4349;47.552;8.904;2022-12-18T02:13:46;52.97;;;27.57;;
8622;SDS011;4349;47.552;8.904;2022-12-18T02:16:18;48.20;;;26.00;;
8622;SDS011;4349;47.552;8.904;2022-12-18T02:18:49;47.13;;;26.27;;
8622;SDS011;4349;47.552;8.904;2022-12-18T02:21:19;48.23;;;26.13;;
8622;SDS011;4349;47.552;8.904;2022-12-18T02:23:50;50.60;;;26.47;;
8622;SDS011;4349;47.552;8.904;2022-12-18T02:26:25;50.70;;;26.73;;
8622;SDS011;4349;47.552;8.904;2022-12-18T02:28:55;51.73;;;27.30;;
8622;SDS011;4349;47.552;8.904;2022-12-18T02:31:26;48.37;;;26.00;;
8622;SDS011;4349;47.552;8.904;2022-12-18T02:33:55;45.67;;;24.93;;
8622;SDS011;4349;47.552;8.904;2022-12-18T02:36:23;50.27;;;26.33;;
8622;SDS011;4349;47.552;8.904;2022-12-18T02:38:52;53.30;;;26.47;;
8622;SDS011;4349;47.552;8.904;2022-12-18T02:41:20;54.03;;;27.30;;
8622;SDS011;4349;47.552;8.904;2022-12-18T02:43:55;51.73;;;26.70;;
8622;SDS011;4349;47.552;8.904;2022-12-18T02:46:25;50.70;;;25.77;;
8622;SDS011;4349;47.552;8.904;2022-12-18T02:48:57;47.07;;;25.03;;
8622;SDS011;4349;47.552;8.904;2022-12-18T02:51:29;48.87;;;25.83;;
8622;SDS011;4349;47.552;8.904;2022-12-18T02:54:00;47.67;;;24.67;;
8622;SDS011;4349;47.552;8.904;2022-12-18T02:56:31;49.27;;;24.23;;
8622;SDS011;4349;47.552;8.904;2022-12-18T02:59:04;47.83;;;24.80;;
8622;SDS011;4349;47.552;8.904;2022-12-18T03:01:42;46.73;;;24.80;;
8622;SDS011;4349;47.552;8.904;2022-12-18T03:04:11;48.50;;;24.60;;
8622;SDS011;4349;47.552;8.904;2022-12-18T03:06:40;48.47;;;26.33;;
8622;SDS011;4349;47.552;8.904;2022-12-18T03:09:10;49.53;;;25.27;;
8622;SDS011;4349;47.552;8.904;2022-12-18T03:11:40;47.03;;;23.30;;
8622;SDS011;4349;47.552;8.904;2022-12-18T03:14:28;48.00;;;25.40;;
8622;SDS011;4349;47.552;8.904;2022-12-18T03:16:58;45.90;;;24.33;;
8622;SDS011;4349;47.552;8.904;2022-12-18T03:19:28;47.70;;;24.57;;
8622;SDS011;4349;47.552;8.904;2022-12-18T03:21:57;48.53;;;24.77;;
8622;SDS011;4349;47.552;8.904;2022-12-18T03:24:33;50.73;;;24.77;;
8622;SDS011;4349;47.552;8.904;2022-12-18T03:27:04;46.13;;;24.10;;
8622;SDS011;4349;47.552;8.904;2022-12-18T03:29:35;46.73;;;24.67;;
8622;SDS011;4349;47.552;8.904;2022-12-18T03:32:06;48.27;;;24.83;;
8622;SDS011;4349;47.552;8.904;2022-12-18T03:34:36;48.30;;;24.17;;
8622;SDS011;4349;47.552;8.904;2022-12-18T03:37:05;43.87;;;23.80;;
8622;SDS011;4349;47.552;8.904;2022-12-18T03:39:36;48.40;;;25.43;;
8622;SDS011;4349;47.552;8.904;2022-12-18T03:42:05;44.87;;;24.83;;
8622;SDS011;4349;47.552;8.904;2022-12-18T03:44:43;49.10;;;24.73;;
8622;SDS011;4349;47.552;8.904;2022-12-18T03:47:13;49.73;;;24.37;;
8622;SDS011;4349;47.552;8.904;2022-12-18T03:49:45;50.13;;;25.53;;
8622;SDS011;4349;47.552;8.904;2022-12-18T03:52:17;45.90;;;25.13;;
8622;SDS011;4349;47.552;8.904;2022-12-18T03:54:47;50.93;;;25.67;;
8622;SDS011;4349;47.552;8.904;2022-12-18T03:57:16;49.20;;;24.67;;
8622;SDS011;4349;47.552;8.904;2022-12-18T03:59:49;45.90;;;24.57;;
8622;SDS011;4349;47.552;8.904;2022-12-18T04:02:19;43.03;;;24.43;;
8622;SDS011;4349;47.552;8.904;2022-12-18T04:04:48;49.17;;;25.77;;
8622;SDS011;4349;47.552;8.904;2022-12-18T04:07:18;50.60;;;25.20;;
8622;SDS011;4349;47.552;8.904;2022-12-18T04:09:47;49.37;;;24.83;;
8622;SDS011;4349;47.552;8.904;2022-12-18T04:12:17;49.77;;;24.57;;
8622;SDS011;4349;47.552;8.904;2022-12-18T04:14:46;48.57;;;25.00;;
8622;SDS011;4349;47.552;8.904;2022-12-18T04:17:15;51.67;;;25.53;;
8622;SDS011;4349;47.552;8.904;2022-12-18T04:19:42;48.33;;;25.20;;
8622;SDS011;4349;47.552;8.904;2022-12-18T04:22:10;49.63;;;25.40;;
8622;SDS011;4349;47.552;8.904;2022-12-18T04:24:42;46.63;;;24.83;;
8622;SDS011;4349;47.552;8.904;2022-12-18T04:27:21;50.03;;;24.23;;
8622;SDS011;4349;47.552;8.904;2022-12-18T04:29:49;46.03;;;24.57;;
8622;SDS011;4349;47.552;8.904;2022-12-18T04:32:19;50.67;;;24.87;;
8622;SDS011;4349;47.552;8.904;2022-12-18T04:34:47;48.23;;;24.30;;
8622;SDS011;4349;47.552;8.904;2022-12-18T04:37:15;46.27;;;24.00;;
8622;SDS011;4349;47.552;8.904;2022-12-18T04:39:43;46.80;;;24.20;;
8622;SDS011;4349;47.552;8.904;2022-12-18T04:42:19;46.37;;;23.97;;
8622;SDS011;4349;47.552;8.904;2022-12-18T04:44:46;43.43;;;22.50;;
8622;SDS011;4349;47.552;8.904;2022-12-18T04:47:14;46.77;;;23.73;;
8622;SDS011;4349;47.552;8.904;2022-12-18T04:49:42;46.47;;;24.70;;
8622;SDS011;4349;47.552;8.904;2022-12-18T04:52:10;42.47;;;24.53;;
8622;SDS011;4349;47.552;8.904;2022-12-18T04:54:37;44.93;;;23.47;;
8622;SDS011;4349;47.552;8.904;2022-12-18T04:57:05;46.33;;;23.77;;
8622;SDS011;4349;47.552;8.904;2022-12-18T04:59:32;48.23;;;25.07;;
8622;SDS011;4349;47.552;8.904;2022-12-18T05:02:00;44.53;;;24.90;;
8622;SDS011;4349;47.552;8.904;2022-12-18T05:04:28;45.00;;;24.53;;
8622;SDS011;4349;47.552;8.904;2022-12-18T05:06:57;42.73;;;23.00;;
8622;SDS011;4349;47.552;8.904;2022-12-18T05:09:24;47.53;;;23.90;;
8622;SDS011;4349;47.552;8.904;2022-12-18T05:11:51;44.10;;;23.80;;
8622;SDS011;4349;47.552;8.904;2022-12-18T05:14:19;43.10;;;23.27;;
8622;SDS011;4349;47.552;8.904;2022-12-18T05:16:47;45.97;;;23.70;;
8622;SDS011;4349;47.552;8.904;2022-12-18T05:19:14;48.20;;;24.50;;
8622;SDS011;4349;47.552;8.904;2022-12-18T05:21:42;47.47;;;24.37;;
8622;SDS011;4349;47.552;8.904;2022-12-18T05:24:12;46.00;;;24.17;;
8622;SDS011;4349;47.552;8.904;2022-12-18T05:26:40;46.13;;;23.87;;
8622;SDS011;4349;47.552;8.904;2022-12-18T05:29:07;48.10;;;25.23;;
8622;SDS011;4349;47.552;8.904;2022-12-18T05:31:39;46.90;;;24.00;;
8622;SDS011;4349;47.552;8.904;2022-12-18T05:34:07;50.27;;;25.00;;
8622;SDS011;4349;47.552;8.904;2022-12-18T05:36:36;46.97;;;24.07;;
8622;SDS011;4349;47.552;8.904;2022-12-18T05:39:04;45.00;;;25.13;;
8622;SDS011;4349;47.552;8.904;2022-12-18T05:41:33;47.87;;;24.23;;
8622;SDS011;4349;47.552;8.904;2022-12-18T05:44:01;49.37;;;24.83;;
8622;SDS011;4349;47.552;8.904;2022-12-18T05:46:30;51.83;;;24.00;;
8622;SDS011;4349;47.552;8.904;2022-12-18T05:48:58;44.17;;;24.10;;
8622;SDS011;4349;47.552;8.904;2022-12-18T05:51:26;50.70;;;25.87;;
8622;SDS011;4349;47.552;8.904;2022-12-18T05:53:54;53.27;;;26.57;;
8622;SDS011;4349;47.552;8.904;2022-12-18T05:56:22;50.17;;;25.37;;
8622;SDS011;4349;47.552;8.904;2022-12-18T05:58:52;45.67;;;23.53;;
8622;SDS011;4349;47.552;8.904;2022-12-18T06:01:21;44.70;;;23.43;;
8622;SDS011;4349;47.552;8.904;2022-12-18T06:03:48;53.97;;;25.77;;
8622;SDS011;4349;47.552;8.904;2022-12-18T06:06:17;52.33;;;26.10;;
8622;SDS011;4349;47.552;8.904;2022-12-18T06:08:44;48.70;;;25.10;;
8622;SDS011;4349;47.552;8.904;2022-12-18T06:11:12;47.63;;;25.20;;
8622;SDS011;4349;47.552;8.904;2022-12-18T06:13:40;48.80;;;24.90;;
8622;SDS011;4349;47.552;8.904;2022-12-18T06:16:09;46.60;;;25.00;;
8622;SDS011;4349;47.552;8.904;2022-12-18T06:18:36;47.87;;;24.60;;
8622;SDS011;4349;47.552;8.904;2022-12-18T06:21:04;48.57;;;24.90;;
8622;SDS011;4349;47.552;8.904;2022-12-18T06:23:31;45.30;;;23.20;;
8622;SDS011;4349;47.552;8.904;2022-12-18T06:26:02;47.27;;;25.30;;
8622;SDS011;4349;47.552;8.904;2022-12-18T06:28:30;51.17;;;24.63;;
8622;SDS011;4349;47.552;8.904;2022-12-18T06:30:57;47.20;;;23.90;;
8622;SDS011;4349;47.552;8.904;2022-12-18T06:33:27;46.40;;;23.73;;
8622;SDS011;4349;47.552;8.904;2022-12-18T06:35:58;47.77;;;25.03;;
8622;SDS011;4349;47.552;8.904;2022-12-18T06:38:26;49.20;;;26.37;;
8622;SDS011;4349;47.552;8.904;2022-12-18T06:40:54;49.13;;;26.03;;
8622;SDS011;4349;47.552;8.904;2022-12-18T06:43:21;47.73;;;24.87;;
8622;SDS011;4349;47.552;8.904;2022-12-18T06:45:49;47.27;;;23.70;;
8622;SDS011;4349;47.552;8.904;2022-12-18T06:48:19;50.40;;;24.87;;
8622;SDS011;4349;47.552;8.904;2022-12-18T06:50:48;45.53;;;23.80;;
8622;SDS011;4349;47.552;8.904;2022-12-18T06:53:15;48.40;;;24.97;;
8622;SDS011;4349;47.552;8.904;2022-12-18T06:55:43;44.30;;;23.47;;
8622;SDS011;4349;47.552;8.904;2022-12-18T06:58:10;47.90;;;24.07;;
8622;SDS011;4349;47.552;8.904;2022-12-18T07:00:37;47.17;;;24.47;;
8622;SDS011;4349;47.552;8.904;2022-12-18T07:03:05;46.73;;;24.67;;
8622;SDS011;4349;47.552;8.904;2022-12-18T07:05:32;48.33;;;25.83;;
8622;SDS011;4349;47.552;8.904;2022-12-18T07:08:01;48.40;;;24.87;;
8622;SDS011;4349;47.552;8.904;2022-12-18T07:10:29;44.93;;;24.07;;
8622;SDS011;4349;47.552;8.904;2022-12-18T07:12:56;50.60;;;26.30;;
8622;SDS011;4349;47.552;8.904;2022-12-18T07:15:24;48.80;;;25.20;;
8622;SDS011;4349;47.552;8.904;2022-12-18T07:17:51;49.47;;;26.50;;
8622;SDS011;4349;47.552;8.904;2022-12-18T07:20:19;48.13;;;27.03;;
8622;SDS011;4349;47.552;8.904;2022-12-18T07:22:46;44.43;;;23.23;;
8622;SDS011;4349;47.552;8.904;2022-12-18T07:25:22;48.03;;;25.33;;
8622;SDS011;4349;47.552;8.904;2022-12-18T07:27:50;45.30;;;24.37;;
8622;SDS011;4349;47.552;8.904;2022-12-18T07:30:17;48.10;;;24.37;;
8622;SDS011;4349;47.552;8.904;2022-12-18T07:32:45;43.47;;;24.93;;
8622;SDS011;4349;47.552;8.904;2022-12-18T07:35:12;52.57;;;26.40;;
8622;SDS011;4349;47.552;8.904;2022-12-18T07:37:40;48.83;;;25.17;;
8622;SDS011;4349;47.552;8.904;2022-12-18T07:40:08;44.73;;;24.47;;
8622;SDS011;4349;47.552;8.904;2022-12-18T07:42:37;50.20;;;26.20;;
8622;SDS011;4349;47.552;8.904;2022-12-18T07:45:05;45.00;;;24.63;;
8622;SDS011;4349;47.552;8.904;2022-12-18T07:47:34;45.43;;;24.50;;
8622;SDS011;4349;47.552;8.904;2022-12-18T07:50:02;44.20;;;23.57;;
8622;SDS011;4349;47.552;8.904;2022-12-18T07:52:29;42.47;;;21.63;;
8622;SDS011;4349;47.552;8.904;2022-12-18T07:54:58;43.33;;;22.87;;
8622;SDS011;4349;47.552;8.904;2022-12-18T07:57:26;40.70;;;22.57;;
8622;SDS011;4349;47.552;8.904;2022-12-18T08:00:15;39.23;;;20.77;;
8622;SDS011;4349;47.552;8.904;2022-12-18T08:02:43;39.70;;;21.20;;
8622;SDS011;4349;47.552;8.904;2022-12-18T08:05:11;36.33;;;19.50;;
8622;SDS011;4349;47.552;8.904;2022-12-18T08:07:39;40.20;;;20.70;;
8622;SDS011;4349;47.552;8.904;2022-12-18T08:10:07;34.60;;;19.27;;
8622;SDS011;4349;47.552;8.904;2022-12-18T08:12:34;37.37;;;19.73;;
8622;SDS011;4349;47.552;8.904;2022-12-18T08:15:02;32.67;;;18.47;;
8622;SDS011;4349;47.552;8.904;2022-12-18T08:17:31;29.87;;;17.80;;
8622;SDS011;4349;47.552;8.904;2022-12-18T08:19:59;38.17;;;20.17;;
8622;SDS011;4349;47.552;8.904;2022-12-18T08:22:26;39.63;;;20.70;;
8622;SDS011;4349;47.552;8.904;2022-12-18T08:24:54;36.03;;;19.43;;
8622;SDS011;4349;47.552;8.904;2022-12-18T08:27:21;36.80;;;20.17;;
8622;SDS011;4349;47.552;8.904;2022-12-18T08:29:56;39.03;;;19.87;;
8622;SDS011;4349;47.552;8.904;2022-12-18T08:32:24;37.83;;;21.27;;
8622;SDS011;4349;47.552;8.904;2022-12-18T08:34:53;39.03;;;20.13;;
8622;SDS011;4349;47.552;8.904;2022-12-18T08:37:20;38.37;;;19.80;;
8622;SDS011;4349;47.552;8.904;2022-12-18T08:39:48;34.47;;;20.10;;
8622;SDS011;4349;47.552;8.904;2022-12-18T08:42:15;34.60;;;19.37;;
8622;SDS011;4349;47.552;8.904;2022-12-18T08:45:00;35.90;;;18.77;;
8622;SDS011;4349;47.552;8.904;2022-12-18T08:47:28;39.30;;;19.77;;
8622;SDS011;4349;47.552;8.904;2022-12-18T08:49:57;33.57;;;18.40;;
8622;SDS011;4349;47.552;8.904;2022-12-18T08:52:24;31.83;;;17.73;;
8622;SDS011;4349;47.552;8.904;2022-12-18T08:54:52;35.17;;;18.77;;
8622;SDS011;4349;47.552;8.904;2022-12-18T08:57:19;36.67;;;19.03;;
8622;SDS011;4349;47.552;8.904;2022-12-18T08:59:47;33.00;;;18.77;;
8622;SDS011;4349;47.552;8.904;2022-12-18T09:02:14;34.53;;;18.67;;
8622;SDS011;4349;47.552;8.904;2022-12-18T09:04:42;36.97;;;19.77;;
8622;SDS011;4349;47.552;8.904;2022-12-18T09:07:13;37.80;;;19.93;;
8622;SDS011;4349;47.552;8.904;2022-12-18T09:09:41;33.63;;;18.73;;
8622;SDS011;4349;47.552;8.904;2022-12-18T09:12:08;34.97;;;18.70;;
8622;SDS011;4349;47.552;8.904;2022-12-18T09:14:36;32.90;;;19.20;;
8622;SDS011;4349;47.552;8.904;2022-12-18T09:17:03;36.17;;;19.10;;
8622;SDS011;4349;47.552;8.904;2022-12-18T09:19:31;36.07;;;19.20;;
8622;SDS011;4349;47.552;8.904;2022-12-18T09:21:58;31.23;;;17.37;;
8622;SDS011;4349;47.552;8.904;2022-12-18T09:24:27;33.57;;;19.13;;
8622;SDS011;4349;47.552;8.904;2022-12-18T09:26:55;31.57;;;18.07;;
8622;SDS011;4349;47.552;8.904;2022-12-18T09:29:23;34.03;;;18.77;;
8622;SDS011;4349;47.552;8.904;2022-12-18T09:31:50;33.13;;;17.33;;
8622;SDS011;4349;47.552;8.904;2022-12-18T09:34:18;30.80;;;17.40;;
8622;SDS011;4349;47.552;8.904;2022-12-18T09:36:47;34.90;;;19.90;;
8622;SDS011;4349;47.552;8.904;2022-12-18T09:39:15;29.87;;;17.43;;
8622;SDS011;4349;47.552;8.904;2022-12-18T09:41:47;30.03;;;16.63;;
8622;SDS011;4349;47.552;8.904;2022-12-18T09:44:18;31.60;;;17.20;;
8622;SDS011;4349;47.552;8.904;2022-12-18T09:46:49;31.90;;;17.10;;
8622;SDS011;4349;47.552;8.904;2022-12-18T09:49:18;32.00;;;18.27;;
8622;SDS011;4349;47.552;8.904;2022-12-18T09:51:49;31.37;;;18.57;;
8622;SDS011;4349;47.552;8.904;2022-12-18T09:54:18;33.83;;;18.50;;
8622;SDS011;4349;47.552;8.904;2022-12-18T09:56:48;31.67;;;17.93;;
8622;SDS011;4349;47.552;8.904;2022-12-18T09:59:18;34.07;;;19.03;;
8622;SDS011;4349;47.552;8.904;2022-12-18T10:01:47;31.17;;;19.07;;
8622;SDS011;4349;47.552;8.904;2022-12-18T10:04:15;32.93;;;18.37;;
8622;SDS011;4349;47.552;8.904;2022-12-18T10:06:44;31.27;;;18.10;;
8622;SDS011;4349;47.552;8.904;2022-12-18T10:09:15;32.27;;;17.77;;
8622;SDS011;4349;47.552;8.904;2022-12-18T10:11:47;29.60;;;17.03;;
8622;SDS011;4349;47.552;8.904;2022-12-18T10:14:18;34.47;;;18.97;;
8622;SDS011;4349;47.552;8.904;2022-12-18T10:16:52;32.43;;;18.87;;
8622;SDS011;4349;47.552;8.904;2022-12-18T10:19:33;31.63;;;17.27;;
8622;SDS011;4349;47.552;8.904;2022-12-18T10:22:08;31.37;;;17.63;;
8622;SDS011;4349;47.552;8.904;2022-12-18T10:24:39;31.80;;;17.70;;
8622;SDS011;4349;47.552;8.904;2022-12-18T10:27:12;31.07;;;17.87;;
8622;SDS011;4349;47.552;8.904;2022-12-18T10:29:42;31.40;;;18.30;;
8622;SDS011;4349;47.552;8.904;2022-12-18T10:32:13;33.70;;;18.43;;
8622;SDS011;4349;47.552;8.904;2022-12-18T10:34:44;33.77;;;18.53;;
8622;SDS011;4349;47.552;8.904;2022-12-18T10:37:12;34.67;;;18.17;;
8622;SDS011;4349;47.552;8.904;2022-12-18T10:39:43;33.63;;;18.43;;
8622;SDS011;4349;47.552;8.904;2022-12-18T10:42:13;34.20;;;19.83;;
8622;SDS011;4349;47.552;8.904;2022-12-18T10:44:44;35.27;;;19.80;;
8622;SDS011;4349;47.552;8.904;2022-12-18T10:47:12;33.00;;;18.83;;
8622;SDS011;4349;47.552;8.904;2022-12-18T10:49:42;30.73;;;19.23;;
8622;SDS011;4349;47.552;8.904;2022-12-18T10:52:14;33.70;;;18.83;;
8622;SDS011;4349;47.552;8.904;2022-12-18T10:54:46;33.50;;;18.87;;
8622;SDS011;4349;47.552;8.904;2022-12-18T10:57:14;33.40;;;18.63;;
8622;SDS011;4349;47.552;8.904;2022-12-18T10:59:50;32.73;;;18.73;;
8622;SDS011;4349;47.552;8.904;2022-12-18T11:02:25;37.77;;;20.67;;
8622;SDS011;4349;47.552;8.904;2022-12-18T11:04:53;37.97;;;20.10;;
8622;SDS011;4349;47.552;8.904;2022-12-18T11:07:21;37.67;;;20.17;;
8622;SDS011;4349;47.552;8.904;2022-12-18T11:09:59;39.87;;;21.57;;
8622;SDS011;4349;47.552;8.904;2022-12-18T11:12:29;39.20;;;21.57;;
8622;SDS011;4349;47.552;8.904;2022-12-18T11:14:58;41.13;;;21.53;;
8622;SDS011;4349;47.552;8.904;2022-12-18T11:17:28;38.67;;;20.53;;
8622;SDS011;4349;47.552;8.904;2022-12-18T11:19:56;39.70;;;21.60;;
8622;SDS011;4349;47.552;8.904;2022-12-18T11:22:25;40.77;;;20.83;;
8622;SDS011;4349;47.552;8.904;2022-12-18T11:24:55;39.00;;;20.13;;
8622;SDS011;4349;47.552;8.904;2022-12-18T11:27:47;35.17;;;19.07;;
8622;SDS011;4349;47.552;8.904;2022-12-18T11:30:22;41.60;;;21.90;;
8622;SDS011;4349;47.552;8.904;2022-12-18T11:32:49;35.73;;;19.60;;
8622;SDS011;4349;47.552;8.904;2022-12-18T11:35:19;35.00;;;18.00;;
8622;SDS011;4349;47.552;8.904;2022-12-18T11:37:48;36.63;;;19.53;;
8622;SDS011;4349;47.552;8.904;2022-12-18T11:40:17;36.73;;;20.57;;
8622;SDS011;4349;47.552;8.904;2022-12-18T11:42:48;36.40;;;19.57;;
8622;SDS011;4349;47.552;8.904;2022-12-18T11:45:23;33.83;;;18.83;;
8622;SDS011;4349;47.552;8.904;2022-12-18T11:47:52;36.33;;;19.47;;
8622;SDS011;4349;47.552;8.904;2022-12-18T11:50:21;35.87;;;19.57;;
8622;SDS011;4349;47.552;8.904;2022-12-18T11:52:50;35.50;;;19.53;;
8622;SDS011;4349;47.552;8.904;2022-12-18T11:55:30;34.20;;;18.70;;
8622;SDS011;4349;47.552;8.904;2022-12-18T11:58:04;33.67;;;17.90;;
8622;SDS011;4349;47.552;8.904;2022-12-18T12:00:34;33.80;;;19.37;;
8622;SDS011;4349;47.552;8.904;2022-12-18T12:05:51;34.03;;;18.30;;
8622;SDS011;4349;47.552;8.904;2022-12-18T12:08:26;32.63;;;18.30;;
8622;SDS011;4349;47.552;8.904;2022-12-18T12:10:57;31.23;;;17.00;;
8622;SDS011;4349;47.552;8.904;2022-12-18T12:13:30;32.33;;;17.40;;
8622;SDS011;4349;47.552;8.904;2022-12-18T12:16:07;32.20;;;18.33;;
8622;SDS011;4349;47.552;8.904;2022-12-18T12:18:43;31.20;;;17.97;;
8622;SDS011;4349;47.552;8.904;2022-12-18T12:21:16;31.00;;;17.40;;
8622;SDS011;4349;47.552;8.904;2022-12-18T12:23:48;32.80;;;18.30;;
8622;SDS011;4349;47.552;8.904;2022-12-18T12:26:17;35.67;;;19.23;;
8622;SDS011;4349;47.552;8.904;2022-12-18T12:28:55;34.33;;;18.70;;
8622;SDS011;4349;47.552;8.904;2022-12-18T12:31:29;33.50;;;18.60;;
8622;SDS011;4349;47.552;8.904;2022-12-18T12:34:00;31.97;;;18.27;;
8622;SDS011;4349;47.552;8.904;2022-12-18T12:36:34;31.00;;;17.33;;
8622;SDS011;4349;47.552;8.904;2022-12-18T12:39:07;37.83;;;17.87;;
8622;SDS011;4349;47.552;8.904;2022-12-18T12:41:36;33.70;;;18.53;;
8622;SDS011;4349;47.552;8.904;2022-12-18T12:44:23;31.60;;;17.73;;
8622;SDS011;4349;47.552;8.904;2022-12-18T12:46:54;31.17;;;17.67;;
8622;SDS011;4349;47.552;8.904;2022-12-18T12:49:24;30.93;;;18.10;;
8622;SDS011;4349;47.552;8.904;2022-12-18T12:51:56;35.70;;;19.20;;
8622;SDS011;4349;47.552;8.904;2022-12-18T12:54:26;32.13;;;18.40;;
8622;SDS011;4349;47.552;8.904;2022-12-18T12:56:56;29.30;;;16.57;;
8622;SDS011;4349;47.552;8.904;2022-12-18T12:59:26;33.87;;;18.80;;
8622;SDS011;4349;47.552;8.904;2022-12-18T13:01:58;30.07;;;16.73;;
8622;SDS011;4349;47.552;8.904;2022-12-18T13:04:27;31.43;;;17.30;;
8622;SDS011;4349;47.552;8.904;2022-12-18T13:06:59;28.97;;;16.47;;
8622;SDS011;4349;47.552;8.904;2022-12-18T13:09:29;30.57;;;18.10;;
8622;SDS011;4349;47.552;8.904;2022-12-18T13:12:01;30.10;;;17.07;;
8622;SDS011;4349;47.552;8.904;2022-12-18T13:14:47;30.93;;;16.80;;
8622;SDS011;4349;47.552;8.904;2022-12-18T13:17:21;35.97;;;18.50;;
8622;SDS011;4349;47.552;8.904;2022-12-18T13:19:51;32.07;;;17.57;;
8622;SDS011;4349;47.552;8.904;2022-12-18T13:22:20;31.53;;;18.23;;
8622;SDS011;4349;47.552;8.904;2022-12-18T13:24:48;29.23;;;17.53;;
8622;SDS011;4349;47.552;8.904;2022-12-18T13:32:53;30.27;;;16.07;;
8622;SDS011;4349;47.552;8.904;2022-12-18T13:35:42;28.07;;;15.23;;
8622;SDS011;4349;47.552;8.904;2022-12-18T13:38:20;31.13;;;16.53;;
8622;SDS011;4349;47.552;8.904;2022-12-18T13:43:29;31.70;;;16.83;;
8622;SDS011;4349;47.552;8.904;2022-12-18T13:46:05;31.40;;;15.83;;
8622;SDS011;4349;47.552;8.904;2022-12-18T13:48:35;27.33;;;15.57;;
8622;SDS011;4349;47.552;8.904;2022-12-18T13:51:04;27.80;;;15.83;;
8622;SDS011;4349;47.552;8.904;2022-12-18T13:53:34;33.47;;;16.73;;
8622;SDS011;4349;47.552;8.904;2022-12-18T13:56:03;27.60;;;16.03;;
8622;SDS011;4349;47.552;8.904;2022-12-18T13:58:31;27.70;;;15.70;;
8622;SDS011;4349;47.552;8.904;2022-12-18T14:00:59;29.63;;;16.50;;
8622;SDS011;4349;47.552;8.904;2022-12-18T14:03:29;30.97;;;16.33;;
8622;SDS011;4349;47.552;8.904;2022-12-18T14:06:02;30.23;;;16.83;;
8622;SDS011;4349;47.552;8.904;2022-12-18T14:08:38;30.73;;;16.60;;
8622;SDS011;4349;47.552;8.904;2022-12-18T14:11:07;28.83;;;16.07;;
8622;SDS011;4349;47.552;8.904;2022-12-18T14:13:41;30.77;;;16.53;;
8622;SDS011;4349;47.552;8.904;2022-12-18T14:16:11;28.97;;;16.43;;
8622;SDS011;4349;47.552;8.904;2022-12-18T14:18:42;29.27;;;17.13;;
8622;SDS011;4349;47.552;8.904;2022-12-18T14:21:18;31.53;;;17.50;;
8622;SDS011;4349;47.552;8.904;2022-12-18T14:23:45;32.70;;;18.40;;
8622;SDS011;4349;47.552;8.904;2022-12-18T14:26:20;31.80;;;17.87;;
8622;SDS011;4349;47.552;8.904;2022-12-18T14:28:48;36.27;;;17.90;;
8622;SDS011;4349;47.552;8.904;2022-12-18T14:31:18;29.53;;;16.37;;
8622;SDS011;4349;47.552;8.904;2022-12-18T14:33:46;30.53;;;17.10;;
8622;SDS011;4349;47.552;8.904;2022-12-18T14:36:15;29.80;;;16.67;;
8622;SDS011;4349;47.552;8.904;2022-12-18T14:38:47;32.00;;;17.77;;
8622;SDS011;4349;47.552;8.904;2022-12-18T14:41:15;31.93;;;17.47;;
8622;SDS011;4349;47.552;8.904;2022-12-18T14:43:44;35.27;;;19.77;;
8622;SDS011;4349;47.552;8.904;2022-12-18T14:46:25;29.60;;;15.67;;
8622;SDS011;4349;47.552;8.904;2022-12-18T14:48:54;37.43;;;17.07;;
8622;SDS011;4349;47.552;8.904;2022-12-18T14:51:23;33.17;;;16.40;;
8622;SDS011;4349;47.552;8.904;2022-12-18T14:53:56;29.37;;;16.97;;
8622;SDS011;4349;47.552;8.904;2022-12-18T14:56:25;28.67;;;15.93;;
8622;SDS011;4349;47.552;8.904;2022-12-18T14:58:53;34.47;;;19.50;;
8622;SDS011;4349;47.552;8.904;2022-12-18T15:01:23;30.30;;;17.40;;
8622;SDS011;4349;47.552;8.904;2022-12-18T15:03:51;27.83;;;16.33;;
8622;SDS011;4349;47.552;8.904;2022-12-18T15:06:24;27.90;;;15.90;;
8622;SDS011;4349;47.552;8.904;2022-12-18T15:08:52;27.47;;;16.23;;
8622;SDS011;4349;47.552;8.904;2022-12-18T15:11:26;27.10;;;15.97;;
8622;SDS011;4349;47.552;8.904;2022-12-18T15:13:53;25.93;;;15.40;;
8622;SDS011;4349;47.552;8.904;2022-12-18T15:16:21;30.80;;;16.13;;